sensor_id;sensor_type;location;lat;lon;timestamp;temperature;humidity
74923;HTU21D;64715;44.760;37.678;2024-02-26T00:00:30;3.88;61.52
74923;HTU21D;64715;44.760;37.678;2024-02-26T00:01:32;3.89;61.49
74923;HTU21D;64715;44.760;37.678;2024-02-26T00:02:36;3.89;61.52
74923;HTU21D;64715;44.760;37.678;2024-02-26T00:03:38;3.89;61.23
74923;HTU21D;64715;44.760;37.678;2024-02-26T00:04:42;3.89;61.33
74923;HTU21D;64715;44.760;37.678;2024-02-26T00:05:43;3.88;61.29
74923;HTU21D;64715;44.760;37.678;2024-02-26T00:06:44;3.87;61.11
74923;HTU21D;64715;44.760;37.678;2024-02-26T00:07:45;3.86;61.44
74923;HTU21D;64715;44.760;37.678;2024-02-26T00:08:46;3.86;61.35
74923;HTU21D;64715;44.760;37.678;2024-02-26T00:09:48;3.83;61.44
74923;HTU21D;64715;44.760;37.678;2024-02-26T00:10:49;3.82;61.48
74923;HTU21D;64715;44.760;37.678;2024-02-26T00:11:49;3.80;61.34
74923;HTU21D;64715;44.760;37.678;2024-02-26T00:12:50;3.78;61.45
74923;HTU21D;64715;44.760;37.678;2024-02-26T00:13:51;3.76;61.41
74923;HTU21D;64715;44.760;37.678;2024-02-26T00:14:52;3.75;61.57
74923;HTU21D;64715;44.760;37.678;2024-02-26T00:15:54;3.75;61.21
74923;HTU21D;64715;44.760;37.678;2024-02-26T00:16:55;3.74;61.38
74923;HTU21D;64715;44.760;37.678;2024-02-26T00:17:56;3.71;61.11
74923;HTU21D;64715;44.760;37.678;2024-02-26T00:18:57;3.73;61.57
74923;HTU21D;64715;44.760;37.678;2024-02-26T00:19:58;3.72;61.40
74923;HTU21D;64715;44.760;37.678;2024-02-26T00:20:58;3.71;61.50
74923;HTU21D;64715;44.760;37.678;2024-02-26T00:21:59;3.69;61.37
74923;HTU21D;64715;44.760;37.678;2024-02-26T00:23:00;3.72;61.59
74923;HTU21D;64715;44.760;37.678;2024-02-26T00:24:01;3.71;61.53
74923;HTU21D;64715;44.760;37.678;2024-02-26T00:25:03;3.73;61.47
74923;HTU21D;64715;44.760;37.678;2024-02-26T00:26:04;3.73;61.59
74923;HTU21D;64715;44.760;37.678;2024-02-26T00:27:05;3.74;61.45
74923;HTU21D;64715;44.760;37.678;2024-02-26T00:28:06;3.74;61.48
74923;HTU21D;64715;44.760;37.678;2024-02-26T00:29:07;3.76;61.49
74923;HTU21D;64715;44.760;37.678;2024-02-26T00:30:09;3.76;61.63
74923;HTU21D;64715;44.760;37.678;2024-02-26T00:31:10;3.76;61.76
74923;HTU21D;64715;44.760;37.678;2024-02-26T00:32:11;3.74;61.66
74923;HTU21D;64715;44.760;37.678;2024-02-26T00:33:13;3.79;61.86
74923;HTU21D;64715;44.760;37.678;2024-02-26T00:34:15;3.83;61.63
74923;HTU21D;64715;44.760;37.678;2024-02-26T00:35:15;3.85;61.97
74923;HTU21D;64715;44.760;37.678;2024-02-26T00:36:17;3.87;61.77
74923;HTU21D;64715;44.760;37.678;2024-02-26T00:37:19;3.89;61.86
74923;HTU21D;64715;44.760;37.678;2024-02-26T00:38:20;3.91;61.86
74923;HTU21D;64715;44.760;37.678;2024-02-26T00:39:21;3.94;61.67
74923;HTU21D;64715;44.760;37.678;2024-02-26T00:40:22;3.97;61.68
74923;HTU21D;64715;44.760;37.678;2024-02-26T00:41:23;3.99;61.92
74923;HTU21D;64715;44.760;37.678;2024-02-26T00:42:24;4.01;62.00
74923;HTU21D;64715;44.760;37.678;2024-02-26T00:43:25;4.02;61.83
74923;HTU21D;64715;44.760;37.678;2024-02-26T00:44:26;4.03;61.68
74923;HTU21D;64715;44.760;37.678;2024-02-26T00:45:27;4.03;61.57
74923;HTU21D;64715;44.760;37.678;2024-02-26T00:46:28;4.02;61.54
74923;HTU21D;64715;44.760;37.678;2024-02-26T00:47:29;4.03;61.53
74923;HTU21D;64715;44.760;37.678;2024-02-26T00:48:30;4.02;61.54
74923;HTU21D;64715;44.760;37.678;2024-02-26T00:49:31;4.00;61.48
74923;HTU21D;64715;44.760;37.678;2024-02-26T00:50:32;4.01;61.39
74923;HTU21D;64715;44.760;37.678;2024-02-26T00:51:33;4.01;61.46
74923;HTU21D;64715;44.760;37.678;2024-02-26T00:52:34;3.99;61.58
74923;HTU21D;64715;44.760;37.678;2024-02-26T00:53:35;3.99;61.51
74923;HTU21D;64715;44.760;37.678;2024-02-26T00:54:36;3.98;61.74
74923;HTU21D;64715;44.760;37.678;2024-02-26T00:55:37;3.97;61.39
74923;HTU21D;64715;44.760;37.678;2024-02-26T00:56:38;3.97;61.50
74923;HTU21D;64715;44.760;37.678;2024-02-26T00:57:39;3.94;61.54
74923;HTU21D;64715;44.760;37.678;2024-02-26T00:58:41;3.95;61.53
74923;HTU21D;64715;44.760;37.678;2024-02-26T00:59:42;3.94;61.57
74923;HTU21D;64715;44.760;37.678;2024-02-26T01:00:43;3.94;61.57
74923;HTU21D;64715;44.760;37.678;2024-02-26T01:01:44;3.94;61.54
74923;HTU21D;64715;44.760;37.678;2024-02-26T01:02:45;3.91;61.50
74923;HTU21D;64715;44.760;37.678;2024-02-26T01:03:48;3.89;61.34
74923;HTU21D;64715;44.760;37.678;2024-02-26T01:04:49;3.87;61.41
74923;HTU21D;64715;44.760;37.678;2024-02-26T01:05:50;3.86;61.55
74923;HTU21D;64715;44.760;37.678;2024-02-26T01:06:51;3.83;61.50
74923;HTU21D;64715;44.760;37.678;2024-02-26T01:07:52;3.82;61.19
74923;HTU21D;64715;44.760;37.678;2024-02-26T01:08:53;3.83;61.34
74923;HTU21D;64715;44.760;37.678;2024-02-26T01:09:54;3.79;61.38
74923;HTU21D;64715;44.760;37.678;2024-02-26T01:10:54;3.78;61.44
74923;HTU21D;64715;44.760;37.678;2024-02-26T01:11:55;3.77;61.31
74923;HTU21D;64715;44.760;37.678;2024-02-26T01:12:56;3.77;61.19
74923;HTU21D;64715;44.760;37.678;2024-02-26T01:13:57;3.74;61.41
74923;HTU21D;64715;44.760;37.678;2024-02-26T01:14:59;3.74;61.04
74923;HTU21D;64715;44.760;37.678;2024-02-26T01:16:00;3.73;61.31
74923;HTU21D;64715;44.760;37.678;2024-02-26T01:17:02;3.71;61.14
74923;HTU21D;64715;44.760;37.678;2024-02-26T01:18:03;3.70;61.04
74923;HTU21D;64715;44.760;37.678;2024-02-26T01:19:04;3.67;61.23
74923;HTU21D;64715;44.760;37.678;2024-02-26T01:20:05;3.64;61.15
74923;HTU21D;64715;44.760;37.678;2024-02-26T01:21:06;3.62;61.25
74923;HTU21D;64715;44.760;37.678;2024-02-26T01:22:09;3.61;61.41
74923;HTU21D;64715;44.760;37.678;2024-02-26T01:23:10;3.61;61.15
74923;HTU21D;64715;44.760;37.678;2024-02-26T01:24:11;3.59;61.26
74923;HTU21D;64715;44.760;37.678;2024-02-26T01:25:12;3.58;61.41
74923;HTU21D;64715;44.760;37.678;2024-02-26T01:26:13;3.57;61.33
74923;HTU21D;64715;44.760;37.678;2024-02-26T01:27:14;3.57;61.41
74923;HTU21D;64715;44.760;37.678;2024-02-26T01:28:16;3.58;61.43
74923;HTU21D;64715;44.760;37.678;2024-02-26T01:29:17;3.58;61.50
74923;HTU21D;64715;44.760;37.678;2024-02-26T01:30:18;3.59;61.60
74923;HTU21D;64715;44.760;37.678;2024-02-26T01:31:19;3.61;61.31
74923;HTU21D;64715;44.760;37.678;2024-02-26T01:32:20;3.62;61.42
74923;HTU21D;64715;44.760;37.678;2024-02-26T01:33:21;3.63;61.69
74923;HTU21D;64715;44.760;37.678;2024-02-26T01:34:22;3.65;61.41
74923;HTU21D;64715;44.760;37.678;2024-02-26T01:35:23;3.64;61.48
74923;HTU21D;64715;44.760;37.678;2024-02-26T01:36:24;3.68;61.50
74923;HTU21D;64715;44.760;37.678;2024-02-26T01:37:27;3.69;61.50
74923;HTU21D;64715;44.760;37.678;2024-02-26T01:38:30;3.67;61.50
74923;HTU21D;64715;44.760;37.678;2024-02-26T01:39:31;3.70;61.57
74923;HTU21D;64715;44.760;37.678;2024-02-26T01:40:32;3.68;61.41
74923;HTU21D;64715;44.760;37.678;2024-02-26T01:41:33;3.70;61.62
74923;HTU21D;64715;44.760;37.678;2024-02-26T01:42:34;3.70;61.41
74923;HTU21D;64715;44.760;37.678;2024-02-26T01:43:34;3.70;61.44
74923;HTU21D;64715;44.760;37.678;2024-02-26T01:44:35;3.70;61.60
74923;HTU21D;64715;44.760;37.678;2024-02-26T01:45:38;3.72;61.63
74923;HTU21D;64715;44.760;37.678;2024-02-26T01:46:40;3.73;61.59
74923;HTU21D;64715;44.760;37.678;2024-02-26T01:47:41;3.73;61.37
74923;HTU21D;64715;44.760;37.678;2024-02-26T01:48:42;3.73;61.46
74923;HTU21D;64715;44.760;37.678;2024-02-26T01:49:43;3.75;61.50
74923;HTU21D;64715;44.760;37.678;2024-02-26T01:50:44;3.76;61.47
74923;HTU21D;64715;44.760;37.678;2024-02-26T01:51:45;3.76;61.57
74923;HTU21D;64715;44.760;37.678;2024-02-26T01:52:47;3.75;61.48
74923;HTU21D;64715;44.760;37.678;2024-02-26T01:53:49;3.75;61.27
74923;HTU21D;64715;44.760;37.678;2024-02-26T01:54:50;3.75;61.50
74923;HTU21D;64715;44.760;37.678;2024-02-26T01:55:51;3.77;61.43
74923;HTU21D;64715;44.760;37.678;2024-02-26T01:56:52;3.77;61.38
74923;HTU21D;64715;44.760;37.678;2024-02-26T01:57:53;3.79;61.41
74923;HTU21D;64715;44.760;37.678;2024-02-26T01:58:54;3.77;61.33
74923;HTU21D;64715;44.760;37.678;2024-02-26T01:59:56;3.80;61.31
74923;HTU21D;64715;44.760;37.678;2024-02-26T02:00:57;3.80;61.49
74923;HTU21D;64715;44.760;37.678;2024-02-26T02:02:01;3.82;61.23
74923;HTU21D;64715;44.760;37.678;2024-02-26T02:03:04;3.82;61.43
74923;HTU21D;64715;44.760;37.678;2024-02-26T02:04:05;3.83;61.46
74923;HTU21D;64715;44.760;37.678;2024-02-26T02:05:06;3.83;61.23
74923;HTU21D;64715;44.760;37.678;2024-02-26T02:06:08;3.82;61.18
74923;HTU21D;64715;44.760;37.678;2024-02-26T02:07:09;3.84;61.10
74923;HTU21D;64715;44.760;37.678;2024-02-26T02:08:11;3.84;61.25
74923;HTU21D;64715;44.760;37.678;2024-02-26T02:09:12;3.83;61.17
74923;HTU21D;64715;44.760;37.678;2024-02-26T02:10:14;3.82;61.21
74923;HTU21D;64715;44.760;37.678;2024-02-26T02:11:15;3.83;61.31
74923;HTU21D;64715;44.760;37.678;2024-02-26T02:12:17;3.80;61.18
74923;HTU21D;64715;44.760;37.678;2024-02-26T02:13:19;3.82;61.12
74923;HTU21D;64715;44.760;37.678;2024-02-26T02:14:19;3.80;61.10
74923;HTU21D;64715;44.760;37.678;2024-02-26T02:15:20;3.78;60.83
74923;HTU21D;64715;44.760;37.678;2024-02-26T02:16:22;3.77;60.93
74923;HTU21D;64715;44.760;37.678;2024-02-26T02:17:23;3.77;61.05
74923;HTU21D;64715;44.760;37.678;2024-02-26T02:18:24;3.74;61.09
74923;HTU21D;64715;44.760;37.678;2024-02-26T02:19:25;3.74;61.14
74923;HTU21D;64715;44.760;37.678;2024-02-26T02:20:35;3.73;61.10
74923;HTU21D;64715;44.760;37.678;2024-02-26T02:21:36;3.70;60.93
74923;HTU21D;64715;44.760;37.678;2024-02-26T02:22:37;3.70;61.22
74923;HTU21D;64715;44.760;37.678;2024-02-26T02:23:39;3.70;60.99
74923;HTU21D;64715;44.760;37.678;2024-02-26T02:24:40;3.69;61.19
74923;HTU21D;64715;44.760;37.678;2024-02-26T02:25:41;3.68;61.13
74923;HTU21D;64715;44.760;37.678;2024-02-26T02:26:42;3.69;61.03
74923;HTU21D;64715;44.760;37.678;2024-02-26T02:27:43;3.69;61.12
74923;HTU21D;64715;44.760;37.678;2024-02-26T02:28:44;3.71;61.16
74923;HTU21D;64715;44.760;37.678;2024-02-26T02:29:46;3.72;61.28
74923;HTU21D;64715;44.760;37.678;2024-02-26T02:30:48;3.73;61.21
74923;HTU21D;64715;44.760;37.678;2024-02-26T02:31:50;3.75;61.17
74923;HTU21D;64715;44.760;37.678;2024-02-26T02:32:51;3.75;61.41
74923;HTU21D;64715;44.760;37.678;2024-02-26T02:33:52;3.79;61.16
74923;HTU21D;64715;44.760;37.678;2024-02-26T02:34:53;3.83;61.28
74923;HTU21D;64715;44.760;37.678;2024-02-26T02:35:54;3.88;61.21
74923;HTU21D;64715;44.760;37.678;2024-02-26T02:36:55;3.89;61.02
74923;HTU21D;64715;44.760;37.678;2024-02-26T02:37:57;3.91;61.00
74923;HTU21D;64715;44.760;37.678;2024-02-26T02:38:58;3.92;61.08
74923;HTU21D;64715;44.760;37.678;2024-02-26T02:39:59;3.94;61.08
74923;HTU21D;64715;44.760;37.678;2024-02-26T02:41:00;3.97;61.27
74923;HTU21D;64715;44.760;37.678;2024-02-26T02:42:01;3.98;61.16
74923;HTU21D;64715;44.760;37.678;2024-02-26T02:43:02;3.99;61.15
74923;HTU21D;64715;44.760;37.678;2024-02-26T02:44:03;4.00;61.02
74923;HTU21D;64715;44.760;37.678;2024-02-26T02:45:04;4.01;61.04
74923;HTU21D;64715;44.760;37.678;2024-02-26T02:46:05;4.01;61.13
74923;HTU21D;64715;44.760;37.678;2024-02-26T02:47:06;4.03;60.99
74923;HTU21D;64715;44.760;37.678;2024-02-26T02:48:08;4.04;61.06
74923;HTU21D;64715;44.760;37.678;2024-02-26T02:49:11;4.05;61.06
74923;HTU21D;64715;44.760;37.678;2024-02-26T02:50:12;4.06;61.12
74923;HTU21D;64715;44.760;37.678;2024-02-26T02:51:13;4.06;61.07
74923;HTU21D;64715;44.760;37.678;2024-02-26T02:52:14;4.05;60.95
74923;HTU21D;64715;44.760;37.678;2024-02-26T02:53:15;4.06;61.15
74923;HTU21D;64715;44.760;37.678;2024-02-26T02:54:17;4.06;61.09
74923;HTU21D;64715;44.760;37.678;2024-02-26T02:55:18;4.08;61.22
74923;HTU21D;64715;44.760;37.678;2024-02-26T02:56:19;4.08;61.01
74923;HTU21D;64715;44.760;37.678;2024-02-26T02:57:20;4.09;61.04
74923;HTU21D;64715;44.760;37.678;2024-02-26T02:58:21;4.13;60.86
74923;HTU21D;64715;44.760;37.678;2024-02-26T02:59:22;4.10;60.91
74923;HTU21D;64715;44.760;37.678;2024-02-26T03:00:23;4.10;61.06
74923;HTU21D;64715;44.760;37.678;2024-02-26T03:01:23;4.12;60.99
74923;HTU21D;64715;44.760;37.678;2024-02-26T03:02:24;4.10;60.86
74923;HTU21D;64715;44.760;37.678;2024-02-26T03:03:25;4.15;60.71
74923;HTU21D;64715;44.760;37.678;2024-02-26T03:04:26;4.18;61.02
74923;HTU21D;64715;44.760;37.678;2024-02-26T03:05:27;4.22;60.99
74923;HTU21D;64715;44.760;37.678;2024-02-26T03:06:28;4.26;60.76
74923;HTU21D;64715;44.760;37.678;2024-02-26T03:07:29;4.29;60.64
74923;HTU21D;64715;44.760;37.678;2024-02-26T03:08:30;4.33;60.67
74923;HTU21D;64715;44.760;37.678;2024-02-26T03:09:31;4.36;60.66
74923;HTU21D;64715;44.760;37.678;2024-02-26T03:10:32;4.41;60.68
74923;HTU21D;64715;44.760;37.678;2024-02-26T03:11:33;4.43;60.61
74923;HTU21D;64715;44.760;37.678;2024-02-26T03:12:34;4.46;60.67
74923;HTU21D;64715;44.760;37.678;2024-02-26T03:13:35;4.49;60.60
74923;HTU21D;64715;44.760;37.678;2024-02-26T03:14:37;4.52;60.60
74923;HTU21D;64715;44.760;37.678;2024-02-26T03:15:38;4.57;60.63
74923;HTU21D;64715;44.760;37.678;2024-02-26T03:16:39;4.61;60.73
74923;HTU21D;64715;44.760;37.678;2024-02-26T03:17:39;4.66;60.65
74923;HTU21D;64715;44.760;37.678;2024-02-26T03:18:41;4.68;60.52
74923;HTU21D;64715;44.760;37.678;2024-02-26T03:19:43;4.73;60.47
74923;HTU21D;64715;44.760;37.678;2024-02-26T03:20:47;4.76;60.36
74923;HTU21D;64715;44.760;37.678;2024-02-26T03:21:48;4.77;60.47
74923;HTU21D;64715;44.760;37.678;2024-02-26T03:22:49;4.80;60.44
74923;HTU21D;64715;44.760;37.678;2024-02-26T03:23:49;4.82;60.42
74923;HTU21D;64715;44.760;37.678;2024-02-26T03:24:50;4.86;60.42
74923;HTU21D;64715;44.760;37.678;2024-02-26T03:25:51;4.87;60.21
74923;HTU21D;64715;44.760;37.678;2024-02-26T03:26:53;4.87;60.47
74923;HTU21D;64715;44.760;37.678;2024-02-26T03:27:54;4.89;60.28
74923;HTU21D;64715;44.760;37.678;2024-02-26T03:28:55;4.87;60.19
74923;HTU21D;64715;44.760;37.678;2024-02-26T03:29:55;4.88;60.35
74923;HTU21D;64715;44.760;37.678;2024-02-26T03:30:57;4.87;60.25
74923;HTU21D;64715;44.760;37.678;2024-02-26T03:31:58;4.89;60.23
74923;HTU21D;64715;44.760;37.678;2024-02-26T03:32:59;4.88;60.18
74923;HTU21D;64715;44.760;37.678;2024-02-26T03:34:00;4.89;60.11
74923;HTU21D;64715;44.760;37.678;2024-02-26T03:35:01;4.88;59.96
74923;HTU21D;64715;44.760;37.678;2024-02-26T03:36:03;4.86;59.87
74923;HTU21D;64715;44.760;37.678;2024-02-26T03:37:04;4.84;59.99
74923;HTU21D;64715;44.760;37.678;2024-02-26T03:38:05;4.81;59.80
74923;HTU21D;64715;44.760;37.678;2024-02-26T03:39:06;4.78;59.68
74923;HTU21D;64715;44.760;37.678;2024-02-26T03:40:08;4.75;59.81
74923;HTU21D;64715;44.760;37.678;2024-02-26T03:41:09;4.69;59.63
74923;HTU21D;64715;44.760;37.678;2024-02-26T03:42:10;4.65;59.54
74923;HTU21D;64715;44.760;37.678;2024-02-26T03:43:11;4.59;59.57
74923;HTU21D;64715;44.760;37.678;2024-02-26T03:44:13;4.53;59.77
74923;HTU21D;64715;44.760;37.678;2024-02-26T03:45:14;4.48;59.61
74923;HTU21D;64715;44.760;37.678;2024-02-26T03:46:15;4.44;59.71
74923;HTU21D;64715;44.760;37.678;2024-02-26T03:47:16;4.41;59.64
74923;HTU21D;64715;44.760;37.678;2024-02-26T03:48:17;4.37;59.70
74923;HTU21D;64715;44.760;37.678;2024-02-26T03:49:18;4.36;59.61
74923;HTU21D;64715;44.760;37.678;2024-02-26T03:50:19;4.35;59.86
74923;HTU21D;64715;44.760;37.678;2024-02-26T03:51:20;4.33;59.87
74923;HTU21D;64715;44.760;37.678;2024-02-26T03:52:21;4.33;59.89
74923;HTU21D;64715;44.760;37.678;2024-02-26T03:53:21;4.33;59.77
74923;HTU21D;64715;44.760;37.678;2024-02-26T03:54:22;4.32;59.77
74923;HTU21D;64715;44.760;37.678;2024-02-26T03:55:23;4.31;59.84
74923;HTU21D;64715;44.760;37.678;2024-02-26T03:56:26;4.28;59.73
74923;HTU21D;64715;44.760;37.678;2024-02-26T03:57:27;4.27;59.91
74923;HTU21D;64715;44.760;37.678;2024-02-26T03:58:28;4.28;59.91
74923;HTU21D;64715;44.760;37.678;2024-02-26T03:59:29;4.29;59.80
74923;HTU21D;64715;44.760;37.678;2024-02-26T04:00:30;4.29;60.03
74923;HTU21D;64715;44.760;37.678;2024-02-26T04:01:31;4.29;60.02
74923;HTU21D;64715;44.760;37.678;2024-02-26T04:02:32;4.30;60.16
74923;HTU21D;64715;44.760;37.678;2024-02-26T04:03:33;4.28;60.15
74923;HTU21D;64715;44.760;37.678;2024-02-26T04:04:35;4.30;60.02
74923;HTU21D;64715;44.760;37.678;2024-02-26T04:05:36;4.30;60.14
74923;HTU21D;64715;44.760;37.678;2024-02-26T04:06:37;4.30;60.08
74923;HTU21D;64715;44.760;37.678;2024-02-26T04:07:38;4.28;60.00
74923;HTU21D;64715;44.760;37.678;2024-02-26T04:08:39;4.30;60.38
74923;HTU21D;64715;44.760;37.678;2024-02-26T04:09:40;4.29;60.00
74923;HTU21D;64715;44.760;37.678;2024-02-26T04:10:41;4.29;60.20
74923;HTU21D;64715;44.760;37.678;2024-02-26T04:11:42;4.29;59.87
74923;HTU21D;64715;44.760;37.678;2024-02-26T04:12:44;4.30;60.12
74923;HTU21D;64715;44.760;37.678;2024-02-26T04:13:45;4.32;60.13
74923;HTU21D;64715;44.760;37.678;2024-02-26T04:14:51;4.30;59.97
74923;HTU21D;64715;44.760;37.678;2024-02-26T04:15:52;4.31;59.96
74923;HTU21D;64715;44.760;37.678;2024-02-26T04:16:53;4.31;59.84
74923;HTU21D;64715;44.760;37.678;2024-02-26T04:17:55;4.32;59.98
74923;HTU21D;64715;44.760;37.678;2024-02-26T04:18:56;4.32;59.97
74923;HTU21D;64715;44.760;37.678;2024-02-26T04:19:57;4.30;59.76
74923;HTU21D;64715;44.760;37.678;2024-02-26T04:20:58;4.30;59.72
74923;HTU21D;64715;44.760;37.678;2024-02-26T04:21:59;4.30;59.98
74923;HTU21D;64715;44.760;37.678;2024-02-26T04:23:00;4.28;59.93
74923;HTU21D;64715;44.760;37.678;2024-02-26T04:24:01;4.28;59.94
74923;HTU21D;64715;44.760;37.678;2024-02-26T04:25:02;4.28;59.93
74923;HTU21D;64715;44.760;37.678;2024-02-26T04:26:04;4.31;60.17
74923;HTU21D;64715;44.760;37.678;2024-02-26T04:27:05;4.36;60.38
74923;HTU21D;64715;44.760;37.678;2024-02-26T04:28:06;4.45;60.65
74923;HTU21D;64715;44.760;37.678;2024-02-26T04:29:07;4.58;60.76
74923;HTU21D;64715;44.760;37.678;2024-02-26T04:30:08;4.69;61.05
74923;HTU21D;64715;44.760;37.678;2024-02-26T04:31:09;4.86;60.98
74923;HTU21D;64715;44.760;37.678;2024-02-26T04:32:10;5.03;61.06
74923;HTU21D;64715;44.760;37.678;2024-02-26T04:33:11;5.22;61.38
74923;HTU21D;64715;44.760;37.678;2024-02-26T04:34:12;5.47;61.18
74923;HTU21D;64715;44.760;37.678;2024-02-26T04:35:13;5.72;61.26
74923;HTU21D;64715;44.760;37.678;2024-02-26T04:36:14;6.01;61.02
74923;HTU21D;64715;44.760;37.678;2024-02-26T04:37:18;6.33;61.15
74923;HTU21D;64715;44.760;37.678;2024-02-26T04:38:19;6.64;60.61
74923;HTU21D;64715;44.760;37.678;2024-02-26T04:39:20;6.95;60.51
74923;HTU21D;64715;44.760;37.678;2024-02-26T04:40:21;7.25;60.23
74923;HTU21D;64715;44.760;37.678;2024-02-26T04:41:22;7.55;59.97
74923;HTU21D;64715;44.760;37.678;2024-02-26T04:42:23;7.84;59.74
74923;HTU21D;64715;44.760;37.678;2024-02-26T04:43:24;8.12;59.53
74923;HTU21D;64715;44.760;37.678;2024-02-26T04:44:25;8.35;59.44
74923;HTU21D;64715;44.760;37.678;2024-02-26T04:45:26;8.58;59.07
74923;HTU21D;64715;44.760;37.678;2024-02-26T04:46:27;8.78;58.86
74923;HTU21D;64715;44.760;37.678;2024-02-26T04:47:28;8.92;58.53
74923;HTU21D;64715;44.760;37.678;2024-02-26T04:48:30;9.06;58.17
74923;HTU21D;64715;44.760;37.678;2024-02-26T04:49:31;9.17;58.00
74923;HTU21D;64715;44.760;37.678;2024-02-26T04:50:32;9.23;58.03
74923;HTU21D;64715;44.760;37.678;2024-02-26T04:51:33;9.34;57.73
74923;HTU21D;64715;44.760;37.678;2024-02-26T04:52:34;9.45;57.73
74923;HTU21D;64715;44.760;37.678;2024-02-26T04:53:35;9.54;57.94
74923;HTU21D;64715;44.760;37.678;2024-02-26T04:54:36;9.69;57.84
74923;HTU21D;64715;44.760;37.678;2024-02-26T04:55:37;9.83;57.64
74923;HTU21D;64715;44.760;37.678;2024-02-26T04:56:38;9.97;57.59
74923;HTU21D;64715;44.760;37.678;2024-02-26T04:57:39;10.15;57.73
74923;HTU21D;64715;44.760;37.678;2024-02-26T04:58:40;10.34;57.83
74923;HTU21D;64715;44.760;37.678;2024-02-26T04:59:41;10.54;57.65
74923;HTU21D;64715;44.760;37.678;2024-02-26T05:00:44;10.75;57.59
74923;HTU21D;64715;44.760;37.678;2024-02-26T05:01:45;10.97;57.18
74923;HTU21D;64715;44.760;37.678;2024-02-26T05:02:45;11.18;56.93
74923;HTU21D;64715;44.760;37.678;2024-02-26T05:03:46;11.40;56.53
74923;HTU21D;64715;44.760;37.678;2024-02-26T05:04:47;11.61;56.39
74923;HTU21D;64715;44.760;37.678;2024-02-26T05:05:48;11.85;56.20
74923;HTU21D;64715;44.760;37.678;2024-02-26T05:06:49;12.06;55.89
74923;HTU21D;64715;44.760;37.678;2024-02-26T05:07:50;12.23;55.54
74923;HTU21D;64715;44.760;37.678;2024-02-26T05:08:51;12.41;55.39
74923;HTU21D;64715;44.760;37.678;2024-02-26T05:09:52;12.53;55.13
74923;HTU21D;64715;44.760;37.678;2024-02-26T05:10:53;12.63;55.07
74923;HTU21D;64715;44.760;37.678;2024-02-26T05:11:54;12.69;54.89
74923;HTU21D;64715;44.760;37.678;2024-02-26T05:12:55;12.76;54.87
74923;HTU21D;64715;44.760;37.678;2024-02-26T05:13:56;12.85;54.75
74923;HTU21D;64715;44.760;37.678;2024-02-26T05:14:57;12.96;54.80
74923;HTU21D;64715;44.760;37.678;2024-02-26T05:15:59;13.11;54.59
74923;HTU21D;64715;44.760;37.678;2024-02-26T05:17:00;13.29;54.58
74923;HTU21D;64715;44.760;37.678;2024-02-26T05:18:02;13.48;54.17
74923;HTU21D;64715;44.760;37.678;2024-02-26T05:19:03;13.65;54.10
74923;HTU21D;64715;44.760;37.678;2024-02-26T05:20:05;13.79;53.81
74923;HTU21D;64715;44.760;37.678;2024-02-26T05:21:08;13.95;53.60
74923;HTU21D;64715;44.760;37.678;2024-02-26T05:22:09;14.12;53.39
74923;HTU21D;64715;44.760;37.678;2024-02-26T05:23:10;14.24;53.15
74923;HTU21D;64715;44.760;37.678;2024-02-26T05:24:11;14.39;53.15
74923;HTU21D;64715;44.760;37.678;2024-02-26T05:25:14;14.56;52.79
74923;HTU21D;64715;44.760;37.678;2024-02-26T05:26:22;14.71;52.47
74923;HTU21D;64715;44.760;37.678;2024-02-26T05:27:23;14.82;52.26
74923;HTU21D;64715;44.760;37.678;2024-02-26T05:28:24;14.97;52.32
74923;HTU21D;64715;44.760;37.678;2024-02-26T05:29:25;15.09;51.85
74923;HTU21D;64715;44.760;37.678;2024-02-26T05:30:26;15.18;51.79
74923;HTU21D;64715;44.760;37.678;2024-02-26T05:31:28;15.31;51.52
74923;HTU21D;64715;44.760;37.678;2024-02-26T05:32:29;15.48;51.35
74923;HTU21D;64715;44.760;37.678;2024-02-26T05:33:30;15.57;51.20
74923;HTU21D;64715;44.760;37.678;2024-02-26T05:34:31;15.66;51.06
74923;HTU21D;64715;44.760;37.678;2024-02-26T05:35:34;15.78;50.80
74923;HTU21D;64715;44.760;37.678;2024-02-26T05:36:34;15.88;50.51
74923;HTU21D;64715;44.760;37.678;2024-02-26T05:37:35;15.96;50.53
74923;HTU21D;64715;44.760;37.678;2024-02-26T05:38:36;16.08;50.40
74923;HTU21D;64715;44.760;37.678;2024-02-26T05:39:37;16.19;50.18
74923;HTU21D;64715;44.760;37.678;2024-02-26T05:40:40;16.34;49.99
74923;HTU21D;64715;44.760;37.678;2024-02-26T05:41:41;16.55;49.68
74923;HTU21D;64715;44.760;37.678;2024-02-26T05:42:43;16.71;49.16
74923;HTU21D;64715;44.760;37.678;2024-02-26T05:43:47;16.80;48.87
74923;HTU21D;64715;44.760;37.678;2024-02-26T05:44:48;16.88;48.73
74923;HTU21D;64715;44.760;37.678;2024-02-26T05:45:49;16.91;48.61
74923;HTU21D;64715;44.760;37.678;2024-02-26T05:46:50;17.02;48.64
74923;HTU21D;64715;44.760;37.678;2024-02-26T05:47:51;17.05;48.33
74923;HTU21D;64715;44.760;37.678;2024-02-26T05:48:52;17.05;48.12
74923;HTU21D;64715;44.760;37.678;2024-02-26T05:49:53;17.09;48.13
74923;HTU21D;64715;44.760;37.678;2024-02-26T05:50:55;17.14;47.99
74923;HTU21D;64715;44.760;37.678;2024-02-26T05:51:56;17.18;47.82
74923;HTU21D;64715;44.760;37.678;2024-02-26T05:52:57;17.19;47.70
74923;HTU21D;64715;44.760;37.678;2024-02-26T05:53:58;17.24;47.72
74923;HTU21D;64715;44.760;37.678;2024-02-26T05:54:59;17.33;47.59
74923;HTU21D;64715;44.760;37.678;2024-02-26T05:56:00;17.43;47.48
74923;HTU21D;64715;44.760;37.678;2024-02-26T05:57:01;17.54;47.26
74923;HTU21D;64715;44.760;37.678;2024-02-26T05:58:03;17.65;46.99
74923;HTU21D;64715;44.760;37.678;2024-02-26T05:59:04;17.78;46.86
74923;HTU21D;64715;44.760;37.678;2024-02-26T06:00:05;17.92;46.65
74923;HTU21D;64715;44.760;37.678;2024-02-26T06:01:13;18.14;46.47
74923;HTU21D;64715;44.760;37.678;2024-02-26T06:02:14;18.32;46.23
74923;HTU21D;64715;44.760;37.678;2024-02-26T06:03:15;18.44;46.13
74923;HTU21D;64715;44.760;37.678;2024-02-26T06:04:16;18.58;45.87
74923;HTU21D;64715;44.760;37.678;2024-02-26T06:05:18;18.66;45.60
74923;HTU21D;64715;44.760;37.678;2024-02-26T06:06:19;18.66;45.59
74923;HTU21D;64715;44.760;37.678;2024-02-26T06:07:20;18.63;45.38
74923;HTU21D;64715;44.760;37.678;2024-02-26T06:08:21;18.64;45.42
74923;HTU21D;64715;44.760;37.678;2024-02-26T06:09:23;18.56;45.46
74923;HTU21D;64715;44.760;37.678;2024-02-26T06:10:23;18.54;45.45
74923;HTU21D;64715;44.760;37.678;2024-02-26T06:11:24;18.56;45.30
74923;HTU21D;64715;44.760;37.678;2024-02-26T06:12:25;18.58;45.36
74923;HTU21D;64715;44.760;37.678;2024-02-26T06:13:28;18.64;45.34
74923;HTU21D;64715;44.760;37.678;2024-02-26T06:14:31;18.73;45.17
74923;HTU21D;64715;44.760;37.678;2024-02-26T06:15:32;18.77;45.13
74923;HTU21D;64715;44.760;37.678;2024-02-26T06:16:33;18.81;45.04
74923;HTU21D;64715;44.760;37.678;2024-02-26T06:17:35;18.86;45.08
74923;HTU21D;64715;44.760;37.678;2024-02-26T06:18:36;18.89;45.18
74923;HTU21D;64715;44.760;37.678;2024-02-26T06:19:37;18.94;45.30